createdAt,value
2023-03-11T00:00:25.343Z,1.27
2023-03-11T00:02:55.473Z,1.08
2023-03-11T00:05:28.744Z,1.10
2023-03-11T00:07:57.681Z,1.10
2023-03-11T00:10:30.334Z,1.20
2023-03-11T00:12:58.701Z,1.20
2023-03-11T00:15:27.352Z,1.15
2023-03-11T00:17:56.132Z,1.10
2023-03-11T00:20:25.959Z,1.05
2023-03-11T00:22:54.932Z,0.95
2023-03-11T00:25:25.938Z,1.00
2023-03-11T00:27:55.400Z,1.02
2023-03-11T00:30:25.103Z,1.10
2023-03-11T00:32:55.159Z,0.93
2023-03-11T00:35:25.535Z,1.10
2023-03-11T00:37:55.980Z,1.00
2023-03-11T00:40:25.005Z,0.80
2023-03-11T00:42:53.194Z,0.82
2023-03-11T00:45:23.204Z,0.90
2023-03-11T00:47:51.672Z,0.90
2023-03-11T00:50:21.785Z,0.95
2023-03-11T00:52:51.347Z,0.93
2023-03-11T00:55:21.853Z,0.75
2023-03-11T00:57:53.003Z,0.73
2023-03-11T01:00:24.639Z,0.90
2023-03-11T01:03:00.471Z,0.88
2023-03-11T01:05:31.284Z,0.93
2023-03-11T01:08:00.150Z,0.70
2023-03-11T01:10:29.000Z,0.98
2023-03-11T01:12:57.327Z,0.70
2023-03-11T01:15:29.285Z,0.82
2023-03-11T01:17:57.461Z,0.90
2023-03-11T01:20:25.643Z,0.57
2023-03-11T01:22:53.700Z,0.50
2023-03-11T01:25:23.729Z,0.60
2023-03-11T01:27:52.143Z,0.63
2023-03-11T01:30:22.312Z,0.60
2023-03-11T01:32:53.355Z,0.60
2023-03-11T01:35:24.514Z,0.75
2023-03-11T01:37:53.510Z,0.52
2023-03-11T01:40:27.053Z,0.60
2023-03-11T01:42:55.102Z,0.60
2023-03-11T01:45:39.897Z,0.80
2023-03-11T01:48:11.010Z,0.85
2023-03-11T01:50:42.517Z,0.73
2023-03-11T01:53:11.966Z,0.85
2023-03-11T01:55:40.124Z,0.52
2023-03-11T01:58:13.012Z,0.70
2023-03-11T02:03:19.742Z,0.60
2023-03-11T02:05:48.741Z,0.77
2023-03-11T02:08:16.870Z,0.70
2023-03-11T02:10:45.778Z,0.60
2023-03-11T02:13:14.114Z,0.60
2023-03-11T02:15:42.368Z,0.65
2023-03-11T02:18:14.788Z,0.60
2023-03-11T02:20:48.069Z,0.60
2023-03-11T02:23:18.509Z,0.60
2023-03-11T02:25:54.172Z,0.70
2023-03-11T02:28:25.216Z,0.60
2023-03-11T02:30:54.588Z,0.50
2023-03-11T02:33:24.470Z,0.60
2023-03-11T02:35:52.841Z,0.60
2023-03-11T02:38:21.336Z,0.57
2023-03-11T02:40:53.993Z,0.45
2023-03-11T02:45:54.794Z,0.60
2023-03-11T02:48:24.029Z,0.50
2023-03-11T02:50:53.092Z,0.50
2023-03-11T02:53:21.681Z,0.65
2023-03-11T02:55:49.721Z,0.57
2023-03-11T02:58:17.804Z,0.50
2023-03-11T03:00:47.323Z,0.50
2023-03-11T03:03:15.903Z,0.30
2023-03-11T03:05:44.078Z,0.88
2023-03-11T03:08:12.100Z,0.50
2023-03-11T03:10:40.251Z,0.50
2023-03-11T03:13:08.960Z,0.43
2023-03-11T03:15:37.012Z,0.55
2023-03-11T03:18:06.829Z,0.52
2023-03-11T03:20:35.016Z,0.52
2023-03-11T03:23:03.280Z,0.50
2023-03-11T03:25:31.389Z,0.70
2023-03-11T03:27:59.550Z,0.50
2023-03-11T03:30:28.425Z,0.52
2023-03-11T03:32:57.158Z,0.43
2023-03-11T03:35:26.537Z,0.65
2023-03-11T03:37:55.148Z,0.50
2023-03-11T03:40:23.700Z,0.52
2023-03-11T03:42:51.767Z,0.70
2023-03-11T03:45:20.106Z,0.43
2023-03-11T03:47:48.313Z,0.45
2023-03-11T03:50:16.490Z,0.35
2023-03-11T03:52:46.140Z,0.60
2023-03-11T03:55:14.176Z,0.45
2023-03-11T03:57:42.243Z,0.43
2023-03-11T04:00:12.086Z,0.70
2023-03-11T04:02:40.891Z,0.55
2023-03-11T04:05:10.106Z,0.50
2023-03-11T04:07:38.366Z,0.40
2023-03-11T04:10:09.026Z,0.50
2023-03-11T04:12:37.253Z,0.40
2023-03-11T04:15:06.186Z,0.65
2023-03-11T04:17:35.242Z,0.50
2023-03-11T04:20:03.606Z,0.47
2023-03-11T04:22:31.761Z,0.20
2023-03-11T04:24:59.825Z,0.38
2023-03-11T04:27:29.381Z,0.43
2023-03-11T04:29:57.548Z,0.57
2023-03-11T04:32:25.771Z,0.50
2023-03-11T04:34:53.872Z,0.45
2023-03-11T04:37:21.924Z,0.40
2023-03-11T04:39:53.393Z,0.35
2023-03-11T04:42:21.691Z,0.35
2023-03-11T04:44:51.096Z,0.20
2023-03-11T04:47:22.742Z,0.40
2023-03-11T04:49:56.052Z,0.50
2023-03-11T04:52:24.409Z,0.38
2023-03-11T04:54:52.501Z,0.40
2023-03-11T04:57:20.616Z,0.32
2023-03-11T04:59:49.220Z,0.50
2023-03-11T05:02:18.736Z,0.57
2023-03-11T05:04:46.973Z,0.45
2023-03-11T05:07:15.075Z,0.50
2023-03-11T05:09:43.920Z,0.60
2023-03-11T05:12:13.237Z,0.57
2023-03-11T05:14:41.400Z,0.95
2023-03-11T05:17:10.573Z,0.60
2023-03-11T05:19:40.330Z,0.85
2023-03-11T05:22:08.717Z,0.70
2023-03-11T05:24:37.756Z,0.75
2023-03-11T05:27:06.568Z,0.73
2023-03-11T05:29:34.661Z,0.80
2023-03-11T05:32:02.776Z,0.63
2023-03-11T05:34:31.519Z,0.68
2023-03-11T05:37:03.149Z,0.40
2023-03-11T05:39:31.445Z,0.60
2023-03-11T05:41:59.540Z,0.50
2023-03-11T05:44:27.610Z,0.50
2023-03-11T05:46:55.881Z,0.63
2023-03-11T05:49:24.123Z,0.57
2023-03-11T05:51:55.282Z,0.52
2023-03-11T05:54:26.186Z,0.82
2023-03-11T05:56:54.238Z,0.40
2023-03-11T05:59:23.295Z,0.43
2023-03-11T06:01:51.634Z,0.77
2023-03-11T06:04:20.026Z,0.65
2023-03-11T06:06:48.233Z,0.73
2023-03-11T06:09:17.181Z,0.50
2023-03-11T06:11:46.643Z,0.65
2023-03-11T06:14:16.170Z,0.70
2023-03-11T06:16:46.930Z,0.40
2023-03-11T06:19:15.011Z,0.32
2023-03-11T06:21:43.103Z,0.40
2023-03-11T06:24:11.123Z,0.60
2023-03-11T06:26:39.181Z,0.50
2023-03-11T06:29:13.728Z,0.50
2023-03-11T06:31:42.581Z,0.50
2023-03-11T06:34:11.374Z,0.40
2023-03-11T06:36:39.498Z,0.50
2023-03-11T06:39:07.918Z,0.47
2023-03-11T06:41:36.159Z,0.50
2023-03-11T06:44:04.960Z,0.70
2023-03-11T06:46:34.386Z,0.70
2023-03-11T06:49:02.479Z,0.47
2023-03-11T06:51:30.824Z,0.30
2023-03-11T06:53:58.948Z,0.70
2023-03-11T06:56:27.158Z,0.30
2023-03-11T06:58:55.341Z,0.40
2023-03-11T07:01:24.784Z,0.50
2023-03-11T07:03:54.523Z,0.35
2023-03-11T07:06:27.276Z,0.32
2023-03-11T07:08:55.936Z,0.38
2023-03-11T07:11:25.765Z,0.40
2023-03-11T07:13:55.342Z,0.63
2023-03-11T07:16:25.957Z,0.52
2023-03-11T07:19:00.907Z,0.40
2023-03-11T07:21:30.186Z,0.50
2023-03-11T07:24:00.583Z,0.50
2023-03-11T07:26:29.929Z,0.68
2023-03-11T07:28:58.628Z,0.40
2023-03-11T07:31:29.262Z,0.38
2023-03-11T07:34:01.128Z,0.50
2023-03-11T07:36:30.218Z,0.50
2023-03-11T07:39:03.140Z,0.20
2023-03-11T07:41:35.207Z,0.43
2023-03-11T07:44:04.765Z,0.40
2023-03-11T07:46:34.039Z,0.47
2023-03-11T07:49:03.795Z,0.60
2023-03-11T07:51:33.508Z,0.40
2023-03-11T07:54:02.532Z,0.50
2023-03-11T07:56:32.632Z,0.60
2023-03-11T07:59:02.738Z,0.40
2023-03-11T08:01:36.321Z,0.32
2023-03-11T08:04:08.405Z,0.43
2023-03-11T08:06:38.664Z,0.50
2023-03-11T08:09:09.887Z,0.47
2023-03-11T08:11:38.688Z,0.40
2023-03-11T08:14:07.688Z,0.52
2023-03-11T08:16:36.880Z,0.43
2023-03-11T08:19:06.477Z,0.40
2023-03-11T08:21:34.615Z,0.60
2023-03-11T08:24:06.594Z,0.43
2023-03-11T08:26:34.949Z,0.45
2023-03-11T08:29:03.209Z,0.30
2023-03-11T08:31:33.361Z,0.38
2023-03-11T08:34:03.027Z,0.40
2023-03-11T08:36:33.170Z,0.40
2023-03-11T08:39:01.858Z,0.40
2023-03-11T08:41:30.240Z,0.47
2023-03-11T08:43:58.353Z,0.40
2023-03-11T08:46:28.748Z,0.30
2023-03-11T08:49:00.734Z,0.55
2023-03-11T08:51:31.043Z,0.60
2023-03-11T08:54:01.355Z,0.50
2023-03-11T08:56:30.205Z,0.40
2023-03-11T08:58:58.373Z,0.60
2023-03-11T09:01:26.898Z,0.40
2023-03-11T09:03:55.216Z,0.60
2023-03-11T09:06:24.469Z,0.60
2023-03-11T09:08:52.726Z,0.40
2023-03-11T09:11:22.885Z,0.30
2023-03-11T09:13:51.304Z,0.40
2023-03-11T09:16:22.022Z,0.50
2023-03-11T09:18:50.623Z,0.38
2023-03-11T09:21:18.833Z,0.40
2023-03-11T09:23:47.494Z,0.60
2023-03-11T09:26:18.757Z,0.30
2023-03-11T09:28:49.881Z,0.38
2023-03-11T09:31:18.551Z,0.43
2023-03-11T09:33:48.312Z,0.40
2023-03-11T09:36:19.386Z,0.60
2023-03-11T09:38:48.666Z,0.60
2023-03-11T09:41:27.624Z,0.40
2023-03-11T09:44:11.803Z,0.50
2023-03-11T09:46:55.767Z,0.52
2023-03-11T09:49:34.008Z,0.50
2023-03-11T09:52:10.014Z,0.40
2023-03-11T09:54:41.798Z,0.22
2023-03-11T09:57:15.482Z,0.40
2023-03-11T09:59:46.403Z,0.40
2023-03-11T10:02:18.575Z,0.45
2023-03-11T10:04:53.011Z,0.50
2023-03-11T10:07:26.717Z,0.55
2023-03-11T10:09:57.124Z,0.43
2023-03-11T10:12:42.737Z,0.50
2023-03-11T10:15:24.368Z,0.38
2023-03-11T10:18:04.054Z,0.60
2023-03-11T10:20:41.528Z,0.30
2023-03-11T10:23:20.502Z,0.30
2023-03-11T10:25:56.032Z,0.50
2023-03-11T10:28:28.727Z,0.50
2023-03-11T10:31:05.482Z,0.30
2023-03-11T10:33:39.438Z,0.50
2023-03-11T10:36:14.241Z,0.40
2023-03-11T10:38:46.671Z,0.35
2023-03-11T10:41:19.600Z,0.40
2023-03-11T10:43:53.372Z,0.63
2023-03-11T10:46:26.273Z,0.52
2023-03-11T10:48:54.372Z,0.40
2023-03-11T10:51:24.503Z,0.50
2023-03-11T10:53:54.774Z,0.45
2023-03-11T10:56:31.509Z,0.60
2023-03-11T10:59:00.990Z,0.38
2023-03-11T11:01:31.868Z,0.60
2023-03-11T11:04:02.715Z,0.40
2023-03-11T11:06:32.281Z,0.57
2023-03-11T11:09:16.930Z,0.40
2023-03-11T11:12:02.526Z,0.60
2023-03-11T11:14:43.925Z,0.52
2023-03-11T11:17:21.971Z,0.50
2023-03-11T11:19:51.318Z,0.38
2023-03-11T11:22:21.921Z,0.40
2023-03-11T11:24:52.432Z,0.50
2023-03-11T11:27:22.633Z,0.50
2023-03-11T11:30:12.364Z,0.40
2023-03-11T11:32:42.348Z,0.50
2023-03-11T11:35:13.715Z,0.60
2023-03-11T11:37:44.584Z,0.55
2023-03-11T11:40:25.759Z,0.57
2023-03-11T11:42:56.845Z,0.50
2023-03-11T11:45:31.870Z,0.40
2023-03-11T11:48:06.330Z,0.70
2023-03-11T11:50:37.996Z,0.45
2023-03-11T11:53:17.561Z,0.55
2023-03-11T11:55:49.456Z,0.70
2023-03-11T11:58:18.534Z,0.50
2023-03-11T12:00:57.701Z,0.50
2023-03-11T12:04:10.525Z,0.70
2023-03-11T12:06:48.946Z,0.60
2023-03-11T12:09:29.499Z,0.73
2023-03-11T12:12:09.407Z,0.60
2023-03-11T12:14:44.800Z,0.47
2023-03-11T12:17:14.901Z,0.60
2023-03-11T12:19:49.078Z,0.70
2023-03-11T12:22:44.793Z,0.60
2023-03-11T12:25:24.897Z,0.60
2023-03-11T12:27:59.034Z,0.75
2023-03-11T12:30:31.362Z,0.80
2023-03-11T12:33:04.452Z,0.70
2023-03-11T12:35:35.627Z,0.60
2023-03-11T12:38:18.074Z,0.90
2023-03-11T12:40:58.669Z,0.73
2023-03-11T12:43:30.517Z,0.60
2023-03-11T12:46:00.416Z,0.57
2023-03-11T12:48:36.573Z,0.50
2023-03-11T12:51:05.813Z,0.70
2023-03-11T12:53:46.796Z,0.52
2023-03-11T12:56:31.885Z,0.68
2023-03-11T12:59:20.525Z,0.63
2023-03-11T13:02:13.294Z,0.60
2023-03-11T13:04:53.668Z,0.80
2023-03-11T13:07:48.117Z,0.50
2023-03-11T13:10:34.591Z,0.65
2023-03-11T13:13:03.489Z,0.55
2023-03-11T13:15:36.974Z,0.70
2023-03-11T13:18:18.061Z,0.60
2023-03-11T13:20:49.779Z,0.73
2023-03-11T13:23:38.415Z,0.80
2023-03-11T13:26:36.383Z,0.70
2023-03-11T13:29:25.857Z,0.73
2023-03-11T13:32:07.573Z,0.80
2023-03-11T13:34:44.552Z,0.70
2023-03-11T13:37:25.293Z,0.60
2023-03-11T13:40:01.634Z,0.80
2023-03-11T13:42:36.681Z,0.93
2023-03-11T13:45:08.511Z,0.80
2023-03-11T13:47:37.862Z,0.77
2023-03-11T13:50:10.262Z,1.00
2023-03-11T13:52:45.536Z,0.52
2023-03-11T13:55:20.691Z,0.70
2023-03-11T13:57:54.288Z,0.75
2023-03-11T14:00:25.051Z,0.70
2023-03-11T14:02:56.160Z,0.80
2023-03-11T14:05:26.830Z,0.77
2023-03-11T14:07:55.517Z,0.50
2023-03-11T14:10:29.047Z,0.93
2023-03-11T14:13:17.565Z,0.82
2023-03-11T14:15:52.414Z,0.70
2023-03-11T14:18:32.884Z,0.77
2023-03-11T14:21:02.633Z,0.75
2023-03-11T14:23:34.291Z,0.80
2023-03-11T14:26:06.378Z,0.80
2023-03-11T14:28:40.158Z,0.70
2023-03-11T14:31:08.492Z,1.10
2023-03-11T14:33:36.581Z,0.90
2023-03-11T14:36:11.253Z,0.75
2023-03-11T14:38:44.755Z,0.73
2023-03-11T14:41:15.970Z,0.70
2023-03-11T14:43:49.362Z,0.80
2023-03-11T14:46:22.775Z,0.75
2023-03-11T14:48:51.650Z,0.85
2023-03-11T14:51:24.301Z,0.80
2023-03-11T14:54:00.175Z,0.90
2023-03-11T14:56:29.066Z,0.60
2023-03-11T14:59:08.144Z,0.60
2023-03-11T15:01:40.967Z,0.93
2023-03-11T15:04:13.763Z,0.77
2023-03-11T15:06:44.594Z,0.55
2023-03-11T15:09:14.638Z,0.75
2023-03-11T15:11:47.343Z,0.98
2023-03-11T15:14:24.842Z,0.80
2023-03-11T15:16:53.711Z,1.00
2023-03-11T15:19:24.612Z,0.90
2023-03-11T15:21:55.291Z,1.00
2023-03-11T15:24:27.715Z,0.90
2023-03-11T15:26:58.039Z,0.90
2023-03-11T15:29:30.392Z,0.80
2023-03-11T15:31:58.899Z,0.95
2023-03-11T15:34:31.671Z,1.25
2023-03-11T15:37:07.591Z,0.82
2023-03-11T15:39:45.009Z,0.70
2023-03-11T15:42:21.668Z,0.73
2023-03-11T15:45:12.041Z,0.77
2023-03-11T15:47:40.875Z,0.95
2023-03-11T15:50:24.473Z,0.73
2023-03-11T15:52:55.414Z,0.90
2023-03-11T15:55:24.109Z,0.70
2023-03-11T15:57:59.112Z,0.63
2023-03-11T16:00:28.725Z,0.90
2023-03-11T16:02:56.965Z,0.77
2023-03-11T16:05:26.128Z,0.80
2023-03-11T16:07:54.616Z,0.80
2023-03-11T16:10:25.716Z,0.80
2023-03-11T16:12:54.004Z,0.80
2023-03-11T16:15:26.606Z,1.10
2023-03-11T16:17:57.594Z,0.60
2023-03-11T16:20:27.830Z,1.10
2023-03-11T16:22:59.592Z,0.63
2023-03-11T16:25:30.419Z,0.80
2023-03-11T16:28:01.193Z,0.85
2023-03-11T16:30:31.631Z,0.80
2023-03-11T16:33:04.316Z,0.88
2023-03-11T16:38:01.326Z,0.80
2023-03-11T16:40:30.930Z,0.90
2023-03-11T16:43:02.661Z,0.60
2023-03-11T16:45:31.084Z,0.60
2023-03-11T16:47:59.626Z,0.70
2023-03-11T16:50:29.346Z,1.02
2023-03-11T16:52:58.303Z,0.90
2023-03-11T16:55:27.560Z,0.80
2023-03-11T16:57:57.441Z,0.60
2023-03-11T17:00:26.248Z,0.70
2023-03-11T17:02:54.665Z,0.60
2023-03-11T17:05:23.449Z,0.60
2023-03-11T17:08:00.160Z,0.80
2023-03-11T17:10:28.826Z,0.85
2023-03-11T17:12:57.083Z,0.90
2023-03-11T17:15:25.133Z,0.80
2023-03-11T17:17:53.355Z,0.80
2023-03-11T17:20:21.878Z,0.80
2023-03-11T17:22:50.241Z,1.00
2023-03-11T17:25:23.076Z,0.60
2023-03-11T17:27:51.160Z,0.73
2023-03-11T17:30:35.539Z,0.95
2023-03-11T17:33:05.576Z,0.70
2023-03-11T17:35:33.737Z,0.90
2023-03-11T17:38:02.238Z,0.80
2023-03-11T17:40:32.714Z,0.70
2023-03-11T17:43:01.445Z,1.00
2023-03-11T17:45:29.704Z,0.85
2023-03-11T17:47:57.847Z,0.75
2023-03-11T17:50:26.423Z,0.95
2023-03-11T17:52:56.540Z,0.65
2023-03-11T17:55:24.744Z,1.13
2023-03-11T17:57:54.882Z,1.10
2023-03-11T18:00:24.660Z,0.90
2023-03-11T18:02:52.723Z,1.10
2023-03-11T18:05:21.432Z,1.00
2023-03-11T18:07:49.647Z,1.00
2023-03-11T18:10:18.518Z,0.88
2023-03-11T18:12:47.600Z,0.90
2023-03-11T18:15:21.895Z,1.33
2023-03-11T18:17:50.170Z,0.90
2023-03-11T18:20:18.834Z,1.00
2023-03-11T18:22:47.355Z,1.00
2023-03-11T18:25:15.655Z,1.00
2023-03-11T18:27:43.996Z,1.00
2023-03-11T18:30:14.397Z,1.00
2023-03-11T18:32:44.881Z,1.00
2023-03-11T18:35:17.566Z,1.10
2023-03-11T18:37:46.656Z,1.13
2023-03-11T18:40:15.471Z,1.13
2023-03-11T18:42:43.520Z,1.02
2023-03-11T18:45:12.327Z,1.10
2023-03-11T18:47:45.212Z,0.80
2023-03-11T18:50:14.388Z,1.15
2023-03-11T18:52:42.485Z,1.00
2023-03-11T18:55:11.179Z,1.05
2023-03-11T18:57:40.625Z,1.10
2023-03-11T19:00:10.244Z,1.20
2023-03-11T19:02:38.617Z,1.05
2023-03-11T19:05:09.867Z,0.90
2023-03-11T19:07:38.120Z,0.90
2023-03-11T19:10:07.114Z,1.15
2023-03-11T19:12:35.325Z,1.10
2023-03-11T19:15:03.480Z,1.23
2023-03-11T19:17:31.792Z,1.20
2023-03-11T19:19:59.986Z,1.35
2023-03-11T19:22:29.426Z,1.10
2023-03-11T19:24:57.601Z,0.98
2023-03-11T19:27:25.751Z,1.00
2023-03-11T19:29:54.309Z,1.20
2023-03-11T19:32:22.585Z,1.02
2023-03-11T19:34:50.794Z,1.17
2023-03-11T19:37:18.896Z,1.38
2023-03-11T19:39:48.404Z,1.23
2023-03-11T19:42:16.897Z,1.30
2023-03-11T19:44:45.103Z,1.23
2023-03-11T19:47:13.281Z,1.17
2023-03-11T19:49:42.509Z,1.20
2023-03-11T19:52:11.231Z,1.20
2023-03-11T19:54:39.760Z,0.95
2023-03-11T19:57:09.357Z,1.00
2023-03-11T19:59:37.569Z,1.40
2023-03-11T20:02:07.141Z,1.20
2023-03-11T20:04:35.423Z,1.10
2023-03-11T20:07:04.316Z,1.00
2023-03-11T20:09:33.003Z,1.38
2023-03-11T20:12:01.108Z,1.00
2023-03-11T20:14:30.855Z,1.30
2023-03-11T20:16:58.933Z,1.20
2023-03-11T20:19:27.041Z,1.15
2023-03-11T20:21:55.366Z,1.10
2023-03-11T20:24:23.475Z,1.38
2023-03-11T20:26:51.669Z,1.40
2023-03-11T20:29:20.737Z,1.33
2023-03-11T20:31:51.338Z,1.20
2023-03-11T20:34:19.480Z,1.10
2023-03-11T20:36:48.509Z,1.15
2023-03-11T20:39:16.682Z,1.02
2023-03-11T20:41:44.736Z,1.30
2023-03-11T20:44:14.398Z,1.10
2023-03-11T20:46:43.118Z,1.20
2023-03-11T20:49:12.703Z,1.10
2023-03-11T20:51:41.965Z,1.30
2023-03-11T20:54:11.996Z,1.40
2023-03-11T20:56:40.124Z,1.13
2023-03-11T20:59:08.212Z,1.17
2023-03-11T21:01:37.576Z,1.15
2023-03-11T21:04:06.365Z,1.10
2023-03-11T21:06:37.881Z,1.30
2023-03-11T21:09:12.173Z,1.25
2023-03-11T21:11:41.561Z,1.02
2023-03-11T21:14:10.514Z,1.10
2023-03-11T21:16:38.781Z,1.20
2023-03-11T21:19:08.821Z,1.30
2023-03-11T21:21:38.848Z,1.02
2023-03-11T21:24:07.730Z,1.00
2023-03-11T21:26:36.368Z,1.10
2023-03-11T21:29:05.299Z,1.00
2023-03-11T21:31:33.754Z,0.98
2023-03-11T21:34:02.055Z,1.20
2023-03-11T21:36:30.745Z,1.10
2023-03-11T21:39:03.292Z,1.05
2023-03-11T21:41:32.834Z,1.08
2023-03-11T21:44:01.411Z,1.10
2023-03-11T21:46:31.813Z,1.10
2023-03-11T21:49:01.288Z,1.00
2023-03-11T21:51:29.984Z,1.00
2023-03-11T21:53:59.199Z,1.00
2023-03-11T21:56:30.011Z,0.90
2023-03-11T21:58:58.316Z,0.95
2023-03-11T22:01:26.544Z,1.20
2023-03-11T22:03:56.655Z,1.00
2023-03-11T22:06:25.381Z,1.13
2023-03-11T22:08:53.759Z,0.90
2023-03-11T22:11:22.103Z,1.15
2023-03-11T22:13:54.086Z,1.10
2023-03-11T22:16:24.123Z,1.02
2023-03-11T22:18:52.755Z,1.13
2023-03-11T22:21:21.751Z,1.00
2023-03-11T22:23:49.958Z,1.08
2023-03-11T22:26:18.374Z,1.00
2023-03-11T22:28:46.503Z,1.27
2023-03-11T22:31:18.650Z,1.20
2023-03-11T22:33:47.037Z,1.17
2023-03-11T22:36:15.148Z,1.20
2023-03-11T22:38:45.375Z,1.23
2023-03-11T22:41:16.781Z,1.20
2023-03-11T22:43:45.073Z,1.10
2023-03-11T22:46:13.138Z,1.05
2023-03-11T22:48:42.852Z,1.10
2023-03-11T22:51:11.281Z,1.15
2023-03-11T22:53:39.566Z,1.00
2023-03-11T22:56:09.826Z,1.00
2023-03-11T22:58:37.909Z,0.90
2023-03-11T23:01:07.163Z,1.20
2023-03-11T23:03:36.910Z,1.05
2023-03-11T23:06:09.896Z,1.23
2023-03-11T23:08:38.362Z,1.20
2023-03-11T23:11:09.212Z,1.00
2023-03-11T23:13:38.129Z,0.90
2023-03-11T23:16:07.728Z,0.88
2023-03-11T23:18:36.226Z,1.30
2023-03-11T23:21:06.287Z,1.20
2023-03-11T23:23:34.415Z,1.15
2023-03-11T23:26:09.293Z,1.00
2023-03-11T23:28:41.099Z,1.00
2023-03-11T23:31:10.256Z,1.10
2023-03-11T23:33:38.941Z,1.17
2023-03-11T23:36:11.421Z,1.08
2023-03-11T23:38:40.042Z,0.90
2023-03-11T23:41:08.836Z,1.40
2023-03-11T23:43:37.400Z,1.20
2023-03-11T23:46:06.252Z,1.08
2023-03-11T23:48:34.715Z,1.10
2023-03-11T23:51:03.122Z,1.33
2023-03-11T23:53:33.222Z,1.20
2023-03-11T23:56:01.298Z,1.23
2023-03-11T23:58:29.691Z,1.05
